createdAt,value
2022-10-17T00:02:02.682Z,100757.44
2022-10-17T00:07:24.559Z,100752.47
2022-10-17T00:09:54.418Z,100759.16
2022-10-17T00:12:23.973Z,100757.44
2022-10-17T00:14:53.563Z,100762.88
2022-10-17T00:17:23.214Z,100752.47
2022-10-17T00:19:55.475Z,100749.56
2022-10-17T00:22:25.066Z,100754.09
2022-10-17T00:24:54.927Z,100744.03
2022-10-17T00:27:24.769Z,100745.09
2022-10-17T00:29:54.873Z,100732.47
2022-10-17T00:32:25.621Z,100748.13
2022-10-17T00:34:58.056Z,100738.94
2022-10-17T00:37:28.249Z,100734.13
2022-10-17T00:39:57.977Z,100729.19
2022-10-17T00:42:27.968Z,100742.00
2022-10-17T00:45:03.795Z,100744.34
2022-10-17T00:47:33.548Z,100741.38
2022-10-17T00:50:06.325Z,100735.63
2022-10-17T00:52:36.119Z,100741.59
2022-10-17T00:55:11.292Z,100735.53
2022-10-17T00:57:41.771Z,100730.44
2022-10-17T01:00:13.596Z,100732.81
2022-10-17T01:02:44.352Z,100733.19
2022-10-17T01:05:17.331Z,100743.25
2022-10-17T01:07:47.579Z,100740.31
2022-10-17T01:10:17.665Z,100730.78
2022-10-17T01:12:58.459Z,100738.63
2022-10-17T01:15:38.799Z,100730.41
2022-10-17T01:18:16.395Z,100730.25
2022-10-17T01:21:15.819Z,100720.13
2022-10-17T01:24:27.212Z,100723.81
2022-10-17T01:27:26.664Z,100730.72
2022-10-17T01:30:09.274Z,100724.00
2022-10-17T01:32:43.781Z,100717.31
2022-10-17T01:35:15.556Z,100718.72
2022-10-17T01:37:49.350Z,100732.03
2022-10-17T01:40:24.043Z,100724.28
2022-10-17T01:42:58.932Z,100728.34
2022-10-17T01:45:31.092Z,100721.97
2022-10-17T01:48:08.504Z,100733.47
2022-10-17T01:50:42.112Z,100726.81
2022-10-17T01:53:14.884Z,100724.69
2022-10-17T01:55:47.141Z,100720.22
2022-10-17T01:58:20.095Z,100717.38
2022-10-17T02:00:51.611Z,100707.88
2022-10-17T02:03:24.759Z,100699.47
2022-10-17T02:05:54.464Z,100695.09
2022-10-17T02:08:31.627Z,100705.00
2022-10-17T02:11:04.596Z,100699.91
2022-10-17T02:13:42.462Z,100699.88
2022-10-17T02:16:19.375Z,100699.13
2022-10-17T02:19:25.709Z,100697.13
2022-10-17T02:22:06.557Z,100698.72
2022-10-17T02:24:45.397Z,100696.28
2022-10-17T02:27:20.377Z,100699.69
2022-10-17T02:29:52.290Z,100698.09
2022-10-17T02:32:29.082Z,100696.59
2022-10-17T02:35:04.832Z,100689.66
2022-10-17T02:37:34.990Z,100693.19
2022-10-17T02:40:05.832Z,100685.38
2022-10-17T02:42:35.841Z,100691.69
2022-10-17T02:45:07.665Z,100691.78
2022-10-17T02:47:42.369Z,100695.84
2022-10-17T02:50:14.733Z,100696.69
2022-10-17T02:52:49.007Z,100699.13
2022-10-17T02:55:21.988Z,100698.94
2022-10-17T02:57:55.886Z,100695.31
2022-10-17T03:00:26.799Z,100708.75
2022-10-17T03:02:57.211Z,100706.16
2022-10-17T03:05:32.276Z,100696.34
2022-10-17T03:08:02.346Z,100705.31
2022-10-17T03:10:31.926Z,100706.28
2022-10-17T03:13:01.553Z,100700.09
2022-10-17T03:15:31.261Z,100696.34
2022-10-17T03:18:01.603Z,100694.34
2022-10-17T03:20:33.915Z,100695.94
2022-10-17T03:23:03.650Z,100705.63
2022-10-17T03:25:33.878Z,100701.38
2022-10-17T03:28:05.457Z,100707.44
2022-10-17T03:30:35.945Z,100705.44
2022-10-17T03:33:05.605Z,100701.28
2022-10-17T03:35:41.472Z,100711.41
2022-10-17T03:38:11.756Z,100710.84
2022-10-17T03:40:41.683Z,100711.09
2022-10-17T03:43:12.381Z,100707.47
2022-10-17T03:45:43.934Z,100715.22
2022-10-17T03:48:13.496Z,100712.91
2022-10-17T03:50:46.016Z,100712.69
2022-10-17T03:53:16.303Z,100702.97
2022-10-17T03:55:46.245Z,100701.59
2022-10-17T03:58:15.824Z,100707.56
2022-10-17T04:00:45.466Z,100706.38
2022-10-17T04:03:17.212Z,100707.78
2022-10-17T04:05:49.710Z,100714.50
2022-10-17T04:08:19.577Z,100710.88
2022-10-17T04:11:11.695Z,100728.69
2022-10-17T04:13:41.449Z,100724.28
2022-10-17T04:16:13.755Z,100728.44
2022-10-17T04:18:51.124Z,100724.09
2022-10-17T04:21:24.668Z,100726.72
2022-10-17T04:23:57.903Z,100722.34
2022-10-17T04:26:44.216Z,100725.56
2022-10-17T04:29:15.462Z,100728.44
2022-10-17T04:31:47.335Z,100720.34
2022-10-17T04:34:22.202Z,100722.38
2022-10-17T04:36:54.576Z,100738.78
2022-10-17T04:39:24.792Z,100742.22
2022-10-17T04:41:56.447Z,100728.16
2022-10-17T04:44:26.048Z,100742.53
2022-10-17T04:46:55.655Z,100742.75
2022-10-17T04:49:25.849Z,100737.53
2022-10-17T04:52:02.092Z,100732.19
2022-10-17T04:54:40.592Z,100734.63
2022-10-17T04:57:13.023Z,100744.53
2022-10-17T04:59:44.176Z,100741.69
2022-10-17T05:02:52.140Z,100752.88
2022-10-17T05:05:23.371Z,100749.38
2022-10-17T05:07:58.721Z,100756.53
2022-10-17T05:10:32.348Z,100760.69
2022-10-17T05:13:02.017Z,100767.06
2022-10-17T05:15:34.585Z,100758.22
2022-10-17T05:18:04.886Z,100764.06
2022-10-17T05:20:35.277Z,100769.31
2022-10-17T05:23:07.717Z,100761.63
2022-10-17T05:25:42.389Z,100765.47
2022-10-17T05:28:11.956Z,100769.00
2022-10-17T05:30:43.666Z,100754.78
2022-10-17T05:33:13.251Z,100748.81
2022-10-17T05:35:43.456Z,100756.81
2022-10-17T05:38:15.763Z,100761.66
2022-10-17T05:40:47.409Z,100760.13
2022-10-17T05:43:17.323Z,100757.91
2022-10-17T05:45:48.440Z,100772.63
2022-10-17T05:48:22.810Z,100764.50
2022-10-17T05:50:53.457Z,100765.38
2022-10-17T05:53:25.607Z,100772.09
2022-10-17T05:56:00.235Z,100788.09
2022-10-17T05:58:49.701Z,100770.06
2022-10-17T06:01:46.313Z,100762.16
2022-10-17T06:04:16.013Z,100769.00
2022-10-17T06:06:46.310Z,100769.13
2022-10-17T06:09:18.935Z,100775.19
2022-10-17T06:11:51.889Z,100781.16
2022-10-17T06:14:21.729Z,100792.47
2022-10-17T06:16:54.935Z,100796.41
2022-10-17T06:19:24.661Z,100807.53
2022-10-17T06:21:54.342Z,100813.41
2022-10-17T06:24:28.578Z,100825.88
2022-10-17T06:26:59.516Z,100842.94
2022-10-17T06:29:29.866Z,100851.91
2022-10-17T06:31:59.501Z,100850.19
2022-10-17T06:34:30.015Z,100853.16
2022-10-17T06:36:59.639Z,100851.47
2022-10-17T06:39:33.985Z,100846.03
2022-10-17T06:42:10.842Z,100843.16
2022-10-17T06:45:18.968Z,100839.22
2022-10-17T06:48:09.616Z,100832.84
2022-10-17T06:51:11.366Z,100837.00
2022-10-17T06:53:50.270Z,100835.06
2022-10-17T06:56:41.441Z,100839.97
2022-10-17T06:59:22.996Z,100839.66
2022-10-17T07:02:03.687Z,100840.50
2022-10-17T07:04:36.513Z,100845.72
2022-10-17T07:07:06.860Z,100842.53
2022-10-17T07:09:37.826Z,100846.16
2022-10-17T07:12:12.734Z,100845.97
2022-10-17T07:14:47.413Z,100855.53
2022-10-17T07:17:17.058Z,100859.28
2022-10-17T07:19:47.032Z,100861.22
2022-10-17T07:22:16.666Z,100860.25
2022-10-17T07:24:53.287Z,100869.97
2022-10-17T07:27:33.023Z,100866.09
2022-10-17T07:30:08.872Z,100865.06
2022-10-17T07:32:41.700Z,100839.00
2022-10-17T07:35:12.619Z,100854.06
2022-10-17T07:37:44.221Z,100858.41
2022-10-17T07:40:14.201Z,100859.19
2022-10-17T07:42:46.741Z,100867.09
2022-10-17T07:45:16.807Z,100856.09
2022-10-17T07:47:47.034Z,100857.69
2022-10-17T07:50:18.769Z,100871.34
2022-10-17T07:52:48.341Z,100872.63
2022-10-17T07:55:18.055Z,100877.00
2022-10-17T07:57:50.322Z,100870.56
2022-10-17T08:00:20.025Z,100880.09
2022-10-17T08:02:49.572Z,100871.09
2022-10-17T08:05:19.287Z,100864.69
2022-10-17T08:07:48.986Z,100861.16
2022-10-17T08:10:18.908Z,100871.63
2022-10-17T08:12:51.077Z,100860.72
2022-10-17T08:15:20.731Z,100874.72
2022-10-17T08:17:50.308Z,100870.97
2022-10-17T08:20:20.106Z,100875.97
2022-10-17T08:22:55.100Z,100878.44
2022-10-17T08:25:25.100Z,100880.16
2022-10-17T08:27:57.389Z,100878.63
2022-10-17T08:30:27.018Z,100885.22
2022-10-17T08:32:56.599Z,100902.09
2022-10-17T08:35:26.358Z,100905.53
2022-10-17T08:37:56.100Z,100911.59
2022-10-17T08:40:28.402Z,100920.75
2022-10-17T08:43:11.250Z,100920.41
2022-10-17T08:45:44.594Z,100924.34
2022-10-17T08:48:17.374Z,100927.78
2022-10-17T08:50:49.394Z,100928.91
2022-10-17T08:53:24.272Z,100912.75
2022-10-17T08:55:55.311Z,100910.47
2022-10-17T08:58:30.057Z,100917.28
2022-10-17T09:01:11.915Z,100926.44
2022-10-17T09:04:01.266Z,100922.00
2022-10-17T09:06:32.925Z,100929.06
2022-10-17T09:09:24.189Z,100925.41
2022-10-17T09:12:04.278Z,100936.72
2022-10-17T09:14:50.923Z,100933.59
2022-10-17T09:17:31.352Z,100935.84
2022-10-17T09:20:07.312Z,100941.56
2022-10-17T09:22:42.241Z,100947.78
2022-10-17T09:25:16.520Z,100952.50
2022-10-17T09:27:51.702Z,100950.44
2022-10-17T09:30:45.080Z,100964.97
2022-10-17T09:33:28.660Z,100964.59
2022-10-17T09:36:13.922Z,100971.19
2022-10-17T09:38:46.466Z,100972.91
2022-10-17T09:44:19.629Z,100977.16
2022-10-17T09:47:01.659Z,100983.75
2022-10-17T09:49:35.670Z,100981.94
2022-10-17T09:52:08.314Z,100986.91
2022-10-17T09:54:44.490Z,100997.41
2022-10-17T09:57:15.954Z,100995.59
2022-10-17T09:59:49.144Z,100995.06
2022-10-17T10:02:28.800Z,101005.91
2022-10-17T10:05:05.150Z,101004.09
2022-10-17T10:07:38.634Z,101009.06
2022-10-17T10:10:10.985Z,101005.78
2022-10-17T10:12:42.324Z,101007.97
2022-10-17T10:15:37.783Z,101022.56
2022-10-17T10:21:22.264Z,101026.22
2022-10-17T10:24:08.044Z,101038.75
2022-10-17T10:26:42.407Z,101050.31
2022-10-17T10:29:23.876Z,101045.06
2022-10-17T10:31:54.121Z,101040.91
2022-10-17T10:34:29.444Z,101033.97
2022-10-17T10:37:03.305Z,101032.88
2022-10-17T10:39:51.091Z,101049.59
2022-10-17T10:42:24.426Z,101054.81
2022-10-17T10:44:55.020Z,101048.34
2022-10-17T10:47:27.469Z,101051.88
2022-10-17T10:50:12.448Z,101048.03
2022-10-17T10:52:46.456Z,101055.41
2022-10-17T10:55:24.737Z,101063.25
2022-10-17T10:57:58.037Z,101079.41
2022-10-17T11:00:29.385Z,101078.53
2022-10-17T11:03:05.669Z,101095.59
2022-10-17T11:05:49.331Z,101102.44
2022-10-17T11:08:26.352Z,101100.47
2022-10-17T11:11:18.221Z,101097.94
2022-10-17T11:13:54.063Z,101102.06
2022-10-17T11:16:31.753Z,101105.50
2022-10-17T11:19:06.068Z,101104.16
2022-10-17T11:24:35.635Z,101099.78
2022-10-17T11:27:08.554Z,101100.75
2022-10-17T11:29:41.004Z,101096.97
2022-10-17T11:32:14.665Z,101096.63
2022-10-17T11:34:47.008Z,101090.16
2022-10-17T11:37:22.374Z,101090.16
2022-10-17T11:39:55.746Z,101077.50
2022-10-17T11:42:29.139Z,101077.78
2022-10-17T11:45:03.146Z,101070.84
2022-10-17T11:47:39.701Z,101076.41
2022-10-17T11:53:14.183Z,101096.00
2022-10-17T11:55:44.105Z,101103.44
2022-10-17T11:58:27.012Z,101102.59
2022-10-17T12:01:03.961Z,101092.72
2022-10-17T12:03:45.483Z,101103.88
2022-10-17T12:06:20.343Z,101105.72
2022-10-17T12:08:56.411Z,101106.81
2022-10-17T12:11:35.261Z,101109.50
2022-10-17T12:14:06.150Z,101112.28
2022-10-17T12:16:47.812Z,101112.16
2022-10-17T12:19:32.677Z,101114.84
2022-10-17T12:22:21.498Z,101114.84
2022-10-17T12:25:02.116Z,101116.78
2022-10-17T12:27:37.919Z,101121.38
2022-10-17T12:30:17.142Z,101118.94
2022-10-17T12:33:14.964Z,101124.06
2022-10-17T12:35:44.796Z,101116.38
2022-10-17T12:38:23.078Z,101111.16
2022-10-17T12:41:02.940Z,101112.88
2022-10-17T12:43:59.622Z,101116.50
2022-10-17T12:46:53.699Z,101121.75
2022-10-17T12:49:40.384Z,101125.53
2022-10-17T12:52:54.405Z,101121.34
2022-10-17T12:55:27.119Z,101126.56
2022-10-17T12:58:01.961Z,101126.81
2022-10-17T13:00:36.329Z,101130.56
2022-10-17T13:03:15.319Z,101128.13
2022-10-17T13:05:48.322Z,101135.41
2022-10-17T13:08:21.510Z,101136.78
2022-10-17T13:10:53.243Z,101148.34
2022-10-17T13:13:33.675Z,101148.78
2022-10-17T13:16:03.284Z,101167.66
2022-10-17T13:18:33.118Z,101168.50
2022-10-17T13:21:05.725Z,101166.81
2022-10-17T13:23:36.772Z,101166.03
2022-10-17T13:26:20.145Z,101170.88
2022-10-17T13:29:04.394Z,101178.06
2022-10-17T13:31:36.022Z,101174.22
2022-10-17T13:34:06.979Z,101173.44
2022-10-17T13:36:37.468Z,101181.19
2022-10-17T13:39:13.688Z,101180.44
2022-10-17T13:41:44.793Z,101185.09
2022-10-17T13:44:19.642Z,101183.41
2022-10-17T13:46:49.344Z,101186.09
2022-10-17T13:49:25.848Z,101191.44
2022-10-17T13:51:58.032Z,101199.78
2022-10-17T13:54:37.125Z,101197.22
2022-10-17T13:57:07.679Z,101196.34
2022-10-17T13:59:41.752Z,101206.94
2022-10-17T14:02:17.548Z,101203.22
2022-10-17T14:08:09.844Z,101206.94
2022-10-17T14:10:34.061Z,101203.34
2022-10-17T14:13:04.322Z,101200.66
2022-10-17T14:15:38.684Z,101204.28
2022-10-17T14:18:11.846Z,101205.03
2022-10-17T14:21:19.868Z,101210.41
2022-10-17T14:23:37.091Z,101204.81
2022-10-17T14:26:15.935Z,101206.41
2022-10-17T14:28:47.381Z,101208.22
2022-10-17T14:31:37.934Z,101214.38
2022-10-17T14:34:07.940Z,101214.44
2022-10-17T14:36:41.998Z,101220.47
2022-10-17T14:39:21.854Z,101224.84
2022-10-17T14:41:52.368Z,101220.00
2022-10-17T14:44:25.248Z,101226.09
2022-10-17T14:47:05.924Z,101227.19
2022-10-17T14:49:43.910Z,101239.81
2022-10-17T14:52:31.362Z,101246.16
2022-10-17T14:55:02.413Z,101257.69
2022-10-17T14:57:43.896Z,101255.97
2022-10-17T15:00:17.650Z,101256.72
2022-10-17T15:02:50.620Z,101265.81
2022-10-17T15:05:21.018Z,101271.94
2022-10-17T15:07:50.618Z,101269.47
2022-10-17T15:10:28.152Z,101273.09
2022-10-17T15:13:15.881Z,101283.50
2022-10-17T15:15:51.289Z,101290.13
2022-10-17T15:18:23.428Z,101290.66
2022-10-17T15:21:04.482Z,101288.31
2022-10-17T15:23:36.240Z,101294.31
2022-10-17T15:26:05.809Z,101301.06
2022-10-17T15:28:35.428Z,101295.59
2022-10-17T15:31:05.066Z,101287.75
2022-10-17T15:33:37.203Z,101292.38
2022-10-17T15:36:07.134Z,101282.09
2022-10-17T15:38:36.696Z,101267.00
2022-10-17T15:41:06.248Z,101292.38
2022-10-17T15:43:35.828Z,101290.00
2022-10-17T15:46:05.408Z,101293.94
2022-10-17T15:48:37.529Z,101288.81
2022-10-17T15:51:07.307Z,101293.53
2022-10-17T15:53:36.985Z,101310.22
2022-10-17T15:56:07.577Z,101318.75
2022-10-17T15:58:40.286Z,101333.38
2022-10-17T16:01:10.163Z,101340.56
2022-10-17T16:03:42.621Z,101336.06
2022-10-17T16:06:14.219Z,101346.06
2022-10-17T16:08:44.002Z,101351.75
2022-10-17T16:11:19.792Z,101366.16
2022-10-17T16:13:53.589Z,101363.91
2022-10-17T16:16:23.472Z,101374.47
2022-10-17T16:18:55.724Z,101378.00
2022-10-17T16:21:27.918Z,101368.75
2022-10-17T16:23:57.709Z,101377.72
2022-10-17T16:26:27.407Z,101378.88
2022-10-17T16:28:58.288Z,101377.63
2022-10-17T16:31:29.613Z,101380.22
2022-10-17T16:34:03.323Z,101385.03
2022-10-17T16:36:33.224Z,101383.22
2022-10-17T16:39:03.200Z,101394.88
2022-10-17T16:41:34.867Z,101393.06
2022-10-17T16:44:06.005Z,101394.41
2022-10-17T16:46:36.213Z,101392.69
2022-10-17T16:49:09.386Z,101396.84
2022-10-17T16:51:39.029Z,101401.75
2022-10-17T16:54:08.665Z,101404.31
2022-10-17T16:56:38.293Z,101400.22
2022-10-17T16:59:07.965Z,101397.44
2022-10-17T17:01:38.075Z,101400.31
2022-10-17T17:04:10.610Z,101395.84
2022-10-17T17:06:40.545Z,101383.63
2022-10-17T17:09:10.640Z,101387.06
2022-10-17T17:11:40.568Z,101387.44
2022-10-17T17:14:10.444Z,101384.41
2022-10-17T17:16:40.029Z,101392.88
2022-10-17T17:19:17.025Z,101392.88
2022-10-17T17:21:50.209Z,101400.78
2022-10-17T17:24:21.065Z,101406.41
2022-10-17T17:26:53.962Z,101413.88
2022-10-17T17:29:23.892Z,101428.16
2022-10-17T17:31:53.557Z,101432.81
2022-10-17T17:34:25.757Z,101439.97
2022-10-17T17:36:55.301Z,101434.16
2022-10-17T17:39:24.842Z,101426.44
2022-10-17T17:41:54.374Z,101421.75
2022-10-17T17:44:23.937Z,101421.75
2022-10-17T17:46:53.484Z,101426.59
2022-10-17T17:49:25.881Z,101427.56
2022-10-17T17:51:55.601Z,101434.03
2022-10-17T17:54:25.394Z,101439.19
2022-10-17T17:56:54.968Z,101441.25
2022-10-17T17:59:24.560Z,101439.94
2022-10-17T18:01:54.307Z,101441.97
2022-10-17T18:04:28.183Z,101447.72
2022-10-17T18:06:57.740Z,101453.16
2022-10-17T18:09:27.301Z,101459.50
2022-10-17T18:11:56.871Z,101461.16
2022-10-17T18:14:26.600Z,101453.16
2022-10-17T18:16:56.778Z,101459.59
2022-10-17T18:19:28.957Z,101459.91
2022-10-17T18:21:58.520Z,101464.44
2022-10-17T18:24:28.333Z,101468.34
2022-10-17T18:26:59.916Z,101471.97
2022-10-17T18:29:29.970Z,101470.31
2022-10-17T18:31:59.545Z,101471.47
2022-10-17T18:34:31.942Z,101476.00
2022-10-17T18:37:02.611Z,101474.38
2022-10-17T18:39:32.272Z,101479.72
2022-10-17T18:42:01.827Z,101479.16
2022-10-17T18:44:31.499Z,101482.59
2022-10-17T18:47:04.150Z,101476.50
2022-10-17T18:49:36.819Z,101479.16
2022-10-17T18:52:06.491Z,101471.22
2022-10-17T18:54:36.162Z,101482.69
2022-10-17T18:57:06.248Z,101490.50
2022-10-17T18:59:35.918Z,101493.41
2022-10-17T19:02:05.994Z,101496.44
2022-10-17T19:04:38.363Z,101496.69
2022-10-17T19:07:08.015Z,101493.63
2022-10-17T19:09:37.619Z,101499.63
2022-10-17T19:12:07.215Z,101497.31
2022-10-17T19:14:38.463Z,101494.47
2022-10-17T19:17:08.135Z,101496.38
2022-10-17T19:19:40.415Z,101501.44
2022-10-17T19:22:09.984Z,101499.19
2022-10-17T19:24:39.734Z,101493.38
2022-10-17T19:27:09.433Z,101503.09
2022-10-17T19:29:43.383Z,101504.91
2022-10-17T19:32:16.751Z,101503.25
2022-10-17T19:34:51.446Z,101504.47
2022-10-17T19:37:21.023Z,101506.94
2022-10-17T19:39:51.515Z,101509.72
2022-10-17T19:42:21.188Z,101514.09
2022-10-17T19:44:50.725Z,101507.13
2022-10-17T19:47:20.240Z,101523.19
2022-10-17T19:49:52.751Z,101521.31
2022-10-17T19:52:22.487Z,101524.41
2022-10-17T19:54:52.065Z,101514.94
2022-10-17T19:57:21.598Z,101519.50
2022-10-17T19:59:53.644Z,101527.41
2022-10-17T20:02:25.520Z,101526.00
2022-10-17T20:05:13.834Z,101530.56
2022-10-17T20:07:47.219Z,101520.97
2022-10-17T20:10:18.444Z,101523.81
2022-10-17T20:12:48.107Z,101526.28
2022-10-17T20:15:17.872Z,101521.81
2022-10-17T20:17:47.426Z,101529.88
2022-10-17T20:20:19.888Z,101519.59
2022-10-17T20:22:49.560Z,101522.31
2022-10-17T20:25:19.285Z,101522.31
2022-10-17T20:27:48.849Z,101520.38
2022-10-17T20:30:18.389Z,101521.31
2022-10-17T20:32:47.964Z,101526.69
2022-10-17T20:35:20.259Z,101526.78
2022-10-17T20:37:49.911Z,101524.81
2022-10-17T20:40:35.825Z,101529.22
2022-10-17T20:43:05.822Z,101538.91
2022-10-17T20:45:51.549Z,101542.44
2022-10-17T20:48:21.811Z,101536.25
2022-10-17T20:50:54.352Z,101531.09
2022-10-17T20:53:36.511Z,101535.56
2022-10-17T20:56:07.943Z,101535.63
2022-10-17T20:58:37.971Z,101545.41
2022-10-17T21:01:09.262Z,101542.16
2022-10-17T21:03:42.340Z,101548.44
2022-10-17T21:06:18.616Z,101549.28
2022-10-17T21:08:48.535Z,101557.09
2022-10-17T21:11:21.033Z,101543.78
2022-10-17T21:13:51.222Z,101547.31
2022-10-17T21:16:21.807Z,101545.06
2022-10-17T21:18:51.973Z,101553.13
2022-10-17T21:21:26.749Z,101549.91
2022-10-17T21:23:57.308Z,101545.44
2022-10-17T21:26:27.064Z,101547.88
2022-10-17T21:28:56.912Z,101544.97
2022-10-17T21:31:28.115Z,101549.44
2022-10-17T21:34:00.549Z,101551.41
2022-10-17T21:36:32.841Z,101551.38
2022-10-17T21:39:02.657Z,101551.59
2022-10-17T21:41:32.505Z,101543.88
2022-10-17T21:44:04.323Z,101544.09
2022-10-17T21:46:34.347Z,101554.75
2022-10-17T21:49:04.051Z,101555.88
2022-10-17T21:51:36.305Z,101562.06
2022-10-17T21:54:06.337Z,101563.88
2022-10-17T21:56:36.457Z,101571.13
2022-10-17T21:59:07.388Z,101570.44
2022-10-17T22:01:38.755Z,101570.44
2022-10-17T22:04:09.939Z,101578.56
2022-10-17T22:06:43.774Z,101582.25
2022-10-17T22:09:17.805Z,101579.50
2022-10-17T22:11:48.608Z,101579.59
2022-10-17T22:14:20.013Z,101580.63
2022-10-17T22:16:50.333Z,101579.91
2022-10-17T22:19:25.629Z,101581.19
2022-10-17T22:21:57.863Z,101588.44
2022-10-17T22:24:27.348Z,101592.69
2022-10-17T22:26:56.898Z,101586.56
2022-10-17T22:29:26.516Z,101586.72
2022-10-17T22:31:56.038Z,101600.97
2022-10-17T22:34:25.605Z,101606.22
2022-10-17T22:36:58.193Z,101600.22
2022-10-17T22:39:27.748Z,101602.91
2022-10-17T22:41:57.685Z,101597.75
2022-10-17T22:44:27.220Z,101601.28
2022-10-17T22:46:56.740Z,101599.09
2022-10-17T22:49:26.257Z,101603.00
2022-10-17T22:51:58.301Z,101596.97
2022-10-17T22:54:28.105Z,101591.72
2022-10-17T22:56:57.703Z,101593.38
2022-10-17T22:59:27.278Z,101605.75
2022-10-17T23:01:56.861Z,101602.31
2022-10-17T23:04:27.363Z,101601.44
2022-10-17T23:06:59.544Z,101602.44
2022-10-17T23:09:29.356Z,101601.44
2022-10-17T23:11:58.913Z,101599.41
2022-10-17T23:14:28.504Z,101612.53
2022-10-17T23:16:58.024Z,101613.94
2022-10-17T23:19:27.683Z,101608.88
2022-10-17T23:21:59.872Z,101614.28
2022-10-17T23:24:29.616Z,101610.81
2022-10-17T23:26:59.523Z,101608.47
2022-10-17T23:29:29.919Z,101609.72
2022-10-17T23:31:59.526Z,101603.75
2022-10-17T23:34:29.576Z,101596.88
2022-10-17T23:37:01.723Z,101602.13
2022-10-17T23:39:31.267Z,101595.94
2022-10-17T23:42:00.798Z,101598.59
2022-10-17T23:44:30.348Z,101595.78
2022-10-17T23:46:59.939Z,101601.25
2022-10-17T23:49:29.535Z,101595.31
2022-10-17T23:52:01.667Z,101596.88
2022-10-17T23:54:31.352Z,101597.19
2022-10-17T23:57:01.056Z,101599.91
2022-10-17T23:59:30.687Z,101594.59
